Islamabad Weather



Islamabad's Current Weather

Temprature 12.39o haze

haze

Rain: 0 %

Min Temprature11o
Max Temprature13.89o
Humidity62
Wind Speed2.1 m/h
Sun Rise07:07:39
Sun Set17:32:12
Current Time: 27-Jan-2020 18:27:44
Lat/Lon: 33.71, 73.13




Islamabad's Geo Location



Islamabad's Weather Forecast

Time Overall Temp Min Temp Max Temp Humidity Wind Speed Rain
27-Jan-2020 (Mon)
20:00:00 overcast clouds 10.050 10.050 12.710 45 2.75 m/h 0 %
23:00:00 overcast clouds 9.630 9.630 11.630 46 2.1 m/h 0 %
28-Jan-2020 (Tue)
02:00:00 light rain 9.010 9.010 10.340 71 4.37 m/h 50 %
05:00:00 light rain 8.460 8.460 9.130 82 0.81 m/h 56 %
08:00:00 overcast clouds 10.420 10.420 10.420 75 1.33 m/h 0 %
11:00:00 overcast clouds 13.160 13.160 13.160 59 4.9 m/h 0 %
14:00:00 light rain 11.520 11.520 11.520 68 3.18 m/h 156 %
17:00:00 light rain 9.920 9.920 9.920 79 4.93 m/h 250 %
20:00:00 overcast clouds 10.540 10.540 10.540 72 2.6 m/h 0 %
23:00:00 light rain 9.650 9.650 9.650 81 1.29 m/h 69 %
29-Jan-2020 (Wed)
02:00:00 light rain 9.560 9.560 9.560 84 1.52 m/h 81 %
05:00:00 light rain 9.600 9.600 9.600 81 1.3 m/h 44 %
08:00:00 light rain 9.350 9.350 9.350 85 2.11 m/h 125 %
11:00:00 light rain 9.250 9.250 9.250 87 0.82 m/h 275 %
14:00:00 light rain 12.120 12.120 12.120 71 2.48 m/h 181 %
17:00:00 light rain 11.700 11.700 11.700 72 2.59 m/h 13 %
20:00:00 scattered clouds 8.860 8.860 8.860 79 2.04 m/h 0 %
23:00:00 few clouds 8.570 8.570 8.570 74 2.79 m/h 0 %
30-Jan-2020 (Thu)
02:00:00 clear sky 7.290 7.290 7.290 79 1.78 m/h 0 %
05:00:00 clear sky 6.310 6.310 6.310 80 1.1 m/h 0 %
08:00:00 clear sky 7.780 7.780 7.780 74 1.15 m/h 0 %
11:00:00 clear sky 13.360 13.360 13.360 53 1.53 m/h 0 %
14:00:00 scattered clouds 16.310 16.310 16.310 42 1.3 m/h 0 %
17:00:00 scattered clouds 14.510 14.510 14.510 49 2.1 m/h 0 %
20:00:00 clear sky 10.790 10.790 10.790 55 2.24 m/h 0 %
23:00:00 few clouds 8.900 8.900 8.900 62 1.15 m/h 0 %
31-Jan-2020 (Fri)
02:00:00 broken clouds 9.230 9.230 9.230 63 0.65 m/h 0 %
05:00:00 broken clouds 7.060 7.060 7.060 71 0.69 m/h 0 %
08:00:00 broken clouds 8.810 8.810 8.810 68 0.59 m/h 0 %
11:00:00 broken clouds 14.060 14.060 14.060 45 1.24 m/h 0 %
14:00:00 overcast clouds 16.370 16.370 16.370 34 2.89 m/h 0 %
17:00:00 overcast clouds 13.990 13.990 13.990 42 2.61 m/h 0 %
20:00:00 broken clouds 10.190 10.190 10.190 47 1.45 m/h 0 %
23:00:00 broken clouds 8.890 8.890 8.890 54 1.4 m/h 0 %
01-Feb-2020 (Sat)
02:00:00 clear sky 7.770 7.770 7.770 63 1.23 m/h 0 %
05:00:00 clear sky 6.540 6.540 6.540 69 0.66 m/h 0 %
08:00:00 clear sky 8.240 8.240 8.240 64 1.03 m/h 0 %
11:00:00 clear sky 14.550 14.550 14.550 40 1.49 m/h 0 %
14:00:00 clear sky 17.540 17.540 17.540 30 2.74 m/h 0 %
17:00:00 clear sky 15.100 15.100 15.100 39 3.43 m/h 0 %


Islamabad's Tourist Spots

Historical Places in Islamabad

Famous Cities (61)